createdAt,value
2023-04-17T00:00:26.615Z,101785.59
2023-04-17T00:02:53.188Z,101782.72
2023-04-17T00:05:23.164Z,101772.56
2023-04-17T00:07:49.706Z,101786.94
2023-04-17T00:10:16.636Z,101783.34
2023-04-17T00:12:43.079Z,101783.34
2023-04-17T00:15:09.428Z,101781.84
2023-04-17T00:17:36.003Z,101781.09
2023-04-17T00:20:02.403Z,101783.97
2023-04-17T00:22:28.758Z,101787.59
2023-04-17T00:24:55.076Z,101785.47
2023-04-17T00:27:21.423Z,101775.22
2023-04-17T00:29:47.751Z,101778.22
2023-04-17T00:32:14.094Z,101778.09
2023-04-17T00:34:40.632Z,101779.44
2023-04-17T00:37:06.969Z,101779.44
2023-04-17T00:39:33.304Z,101777.97
2023-04-17T00:41:59.697Z,101778.72
2023-04-17T00:44:26.040Z,101791.59
2023-04-17T00:46:52.400Z,101777.97
2023-04-17T00:49:18.729Z,101787.94
2023-04-17T00:51:45.054Z,101786.59
2023-04-17T00:54:11.554Z,101787.22
2023-04-17T00:56:37.888Z,101785.06
2023-04-17T00:59:04.205Z,101786.47
2023-04-17T01:01:30.721Z,101787.94
2023-04-17T01:03:57.130Z,101786.47
2023-04-17T01:06:23.540Z,101789.94
2023-04-17T01:08:49.898Z,101789.94
2023-04-17T01:11:16.259Z,101783.47
2023-04-17T01:13:46.305Z,101789.22
2023-04-17T01:16:12.655Z,101794.94
2023-04-17T01:18:39.041Z,101789.22
2023-04-17T01:21:05.635Z,101788.47
2023-04-17T01:23:50.002Z,101786.94
2023-04-17T01:26:16.935Z,101790.59
2023-04-17T01:28:43.295Z,101791.94
2023-04-17T01:31:14.090Z,101791.94
2023-04-17T01:33:40.480Z,101789.69
2023-04-17T01:36:06.847Z,101783.19
2023-04-17T01:38:33.187Z,101786.06
2023-04-17T01:40:59.543Z,101788.94
2023-04-17T01:43:25.859Z,101788.19
2023-04-17T01:45:52.736Z,101787.47
2023-04-17T01:48:19.094Z,101786.72
2023-04-17T01:50:45.406Z,101788.81
2023-04-17T01:53:11.724Z,101791.69
2023-04-17T01:55:38.114Z,101796.69
2023-04-17T01:58:04.670Z,101788.81
2023-04-17T02:00:31.271Z,101788.06
2023-04-17T02:02:57.679Z,101798.81
2023-04-17T02:05:24.166Z,101794.44
2023-04-17T02:07:51.446Z,101797.31
2023-04-17T02:10:18.224Z,101798.06
2023-04-17T02:12:44.562Z,101797.94
2023-04-17T02:15:10.988Z,101798.69
2023-04-17T02:17:37.379Z,101804.44
2023-04-17T02:20:06.885Z,101804.44
2023-04-17T02:22:33.251Z,101805.06
2023-04-17T02:24:59.611Z,101807.19
2023-04-17T02:27:26.025Z,101810.06
2023-04-17T02:29:52.350Z,101806.44
2023-04-17T02:32:18.708Z,101805.69
2023-04-17T02:34:45.396Z,101804.91
2023-04-17T02:37:14.377Z,101812.19
2023-04-17T02:39:40.778Z,101801.44
2023-04-17T02:42:07.139Z,101810.19
2023-04-17T02:48:27.408Z,101809.06
2023-04-17T02:50:54.050Z,101806.47
2023-04-17T02:53:21.172Z,101809.47
2023-04-17T02:55:48.508Z,101815.94
2023-04-17T02:58:16.802Z,101810.94
2023-04-17T03:00:43.224Z,101813.06
2023-04-17T03:03:14.534Z,101812.47
2023-04-17T03:05:41.135Z,101821.84
2023-04-17T03:08:08.799Z,101819.72
2023-04-17T03:10:43.699Z,101822.44
2023-04-17T03:13:10.030Z,101819.72
2023-04-17T03:15:36.377Z,101811.81
2023-04-17T03:18:02.866Z,101827.72
2023-04-17T03:20:29.800Z,101824.22
2023-04-17T03:22:56.564Z,101825.72
2023-04-17T03:25:22.891Z,101827.22
2023-04-17T03:27:52.283Z,101833.72
2023-04-17T03:30:21.074Z,101834.47
2023-04-17T03:32:49.876Z,101834.47
2023-04-17T03:35:16.563Z,101840.22
2023-04-17T03:37:43.068Z,101843.09
2023-04-17T03:40:11.415Z,101845.97
2023-04-17T03:42:37.785Z,101850.34
2023-04-17T03:45:04.638Z,101842.50
2023-04-17T03:47:33.604Z,101844.72
2023-04-17T03:50:00.052Z,101846.25
2023-04-17T03:52:30.254Z,101846.25
2023-04-17T03:54:58.095Z,101847.72
2023-04-17T03:57:25.486Z,101851.34
2023-04-17T03:59:52.509Z,101851.34
2023-04-17T04:02:19.730Z,101856.34
2023-04-17T04:04:50.109Z,101859.97
2023-04-17T04:07:16.556Z,101856.34
2023-04-17T04:09:44.326Z,101862.09
2023-04-17T04:12:10.878Z,101864.97
2023-04-17T04:14:41.861Z,101872.88
2023-04-17T04:17:09.232Z,101866.50
2023-04-17T04:19:35.846Z,101862.25
2023-04-17T04:22:03.032Z,101865.13
2023-04-17T04:24:38.650Z,101870.25
2023-04-17T04:27:05.438Z,101878.25
2023-04-17T04:29:33.859Z,101878.88
2023-04-17T04:32:04.795Z,101877.50
2023-04-17T04:34:37.360Z,101882.50
2023-04-17T04:37:03.681Z,101878.25
2023-04-17T04:39:37.927Z,101884.00
2023-04-17T04:42:09.993Z,101877.50
2023-04-17T04:44:52.979Z,101880.38
2023-04-17T04:47:20.227Z,101879.63
2023-04-17T04:49:48.384Z,101881.13
2023-04-17T04:52:17.880Z,101884.75
2023-04-17T04:54:44.243Z,101882.63
2023-04-17T04:57:10.643Z,101892.75
2023-04-17T04:59:39.185Z,101894.28
2023-04-17T05:02:29.513Z,101894.28
2023-04-17T05:04:56.381Z,101895.75
2023-04-17T05:07:23.452Z,101901.50
2023-04-17T05:09:50.273Z,101895.00
2023-04-17T05:12:16.854Z,101900.75
2023-04-17T05:14:44.054Z,101900.03
2023-04-17T05:17:10.511Z,101905.78
2023-04-17T05:19:36.841Z,101915.00
2023-04-17T05:22:05.425Z,101910.00
2023-04-17T05:24:36.088Z,101917.28
2023-04-17T05:27:02.933Z,101920.16
2023-04-17T05:29:30.313Z,101921.63
2023-04-17T05:31:57.867Z,101923.16
2023-04-17T05:34:48.683Z,101918.91
2023-04-17T05:37:20.767Z,101921.91
2023-04-17T05:39:47.130Z,101923.28
2023-04-17T05:42:13.465Z,101927.53
2023-04-17T05:44:40.092Z,101921.78
2023-04-17T05:47:07.400Z,101927.53
2023-04-17T05:49:33.749Z,101939.03
2023-04-17T05:52:00.180Z,101939.03
2023-04-17T05:54:28.944Z,101932.53
2023-04-17T05:56:56.373Z,101931.78
2023-04-17T05:59:23.178Z,101933.28
2023-04-17T06:01:50.017Z,101933.28
2023-04-17T06:04:20.347Z,101933.41
2023-04-17T06:06:48.372Z,101945.06
2023-04-17T06:09:15.821Z,101944.31
2023-04-17T06:11:42.170Z,101937.78
2023-04-17T06:14:08.510Z,101929.91
2023-04-17T06:16:35.927Z,101942.91
2023-04-17T06:19:02.344Z,101940.78
2023-04-17T06:21:28.670Z,101949.41
2023-04-17T06:23:55.019Z,101945.06
2023-04-17T06:26:21.363Z,101945.06
2023-04-17T06:28:49.558Z,101947.94
2023-04-17T06:31:16.336Z,101960.19
2023-04-17T06:33:43.572Z,101950.81
2023-04-17T06:36:28.474Z,101962.44
2023-04-17T06:38:57.302Z,101954.56
2023-04-17T06:41:23.657Z,101961.06
2023-04-17T06:43:49.996Z,101969.06
2023-04-17T06:46:16.390Z,101965.44
2023-04-17T06:48:42.783Z,101962.56
2023-04-17T06:51:09.229Z,101975.44
2023-04-17T06:53:35.612Z,101963.94
2023-04-17T06:56:01.928Z,101967.78
2023-04-17T06:58:28.260Z,101971.03
2023-04-17T07:00:54.583Z,101973.00
2023-04-17T07:03:21.208Z,101973.06
2023-04-17T07:05:48.797Z,101986.63
2023-04-17T07:08:15.882Z,101987.56
2023-04-17T07:10:42.352Z,101987.25
2023-04-17T07:13:08.678Z,101989.56
2023-04-17T07:15:35.073Z,101988.81
2023-04-17T07:18:01.596Z,101990.13
2023-04-17T07:20:27.976Z,101987.16
2023-04-17T07:22:55.409Z,101980.19
2023-04-17T07:25:21.749Z,101998.00
2023-04-17T07:27:48.072Z,101997.97
2023-04-17T07:30:14.902Z,102002.28
2023-04-17T07:32:41.247Z,101994.53
2023-04-17T07:35:07.813Z,102000.53
2023-04-17T07:37:34.284Z,102000.81
2023-04-17T07:40:00.828Z,101998.31
2023-04-17T07:42:28.418Z,102001.88
2023-04-17T07:44:54.750Z,102004.59
2023-04-17T07:47:21.145Z,102008.84
2023-04-17T07:49:48.968Z,102014.59
2023-04-17T07:52:17.828Z,102016.59
2023-04-17T07:54:44.174Z,102013.59
2023-04-17T07:57:11.051Z,102015.88
2023-04-17T07:59:37.418Z,102022.16
2023-04-17T08:02:03.850Z,102020.66
2023-04-17T08:04:30.898Z,102025.91
2023-04-17T08:06:57.487Z,102024.91
2023-04-17T08:09:23.821Z,102025.38
2023-04-17T08:11:56.949Z,102033.88
2023-04-17T08:14:24.168Z,102037.41
2023-04-17T08:16:50.642Z,102030.25
2023-04-17T08:19:17.063Z,102034.66
2023-04-17T08:21:43.447Z,102035.41
2023-04-17T08:24:09.778Z,102039.63
2023-04-17T08:26:36.364Z,102041.91
2023-04-17T08:29:04.411Z,102042.66
2023-04-17T08:31:31.017Z,102050.66
2023-04-17T08:34:06.566Z,102046.31
2023-04-17T08:36:37.087Z,102054.94
2023-04-17T08:39:04.622Z,102044.19
2023-04-17T08:41:34.178Z,102052.81
2023-04-17T08:44:00.502Z,102052.81
2023-04-17T08:46:27.259Z,102052.16
2023-04-17T08:48:53.713Z,102048.69
2023-04-17T08:51:25.014Z,102044.44
2023-04-17T08:53:51.376Z,102044.44
2023-04-17T08:56:17.713Z,102050.19
2023-04-17T08:58:44.034Z,102051.69
2023-04-17T09:01:18.179Z,102054.56
2023-04-17T09:03:45.593Z,102048.19
2023-04-17T09:06:12.211Z,102048.94
2023-04-17T09:08:38.771Z,102053.19
2023-04-17T09:11:05.294Z,102056.22
2023-04-17T09:13:38.345Z,102050.31
2023-04-17T09:16:05.538Z,102048.94
2023-04-17T09:18:32.049Z,102050.47
2023-04-17T09:20:59.764Z,102050.47
2023-04-17T09:23:27.088Z,102044.72
2023-04-17T09:26:07.023Z,102051.81
2023-04-17T09:28:36.070Z,102055.47
2023-04-17T09:31:06.522Z,102048.94
2023-04-17T09:33:32.902Z,102051.81
2023-04-17T09:36:19.378Z,102058.94
2023-04-17T09:38:47.134Z,102048.19
2023-04-17T09:41:27.009Z,102054.69
2023-04-17T09:43:54.920Z,102044.72
2023-04-17T09:46:31.004Z,102050.47
2023-04-17T09:48:58.661Z,102050.31
2023-04-17T09:51:25.010Z,102051.81
2023-04-17T09:53:51.538Z,102051.69
2023-04-17T09:56:21.571Z,102045.94
2023-04-17T09:58:48.303Z,102047.59
2023-04-17T10:01:14.802Z,102054.69
2023-04-17T10:03:41.604Z,102047.59
2023-04-17T10:06:08.133Z,102055.47
2023-04-17T10:08:34.469Z,102057.56
2023-04-17T10:11:04.434Z,102056.22
2023-04-17T10:13:30.821Z,102048.94
2023-04-17T10:15:57.850Z,102049.72
2023-04-17T10:18:24.926Z,102058.34
2023-04-17T10:20:53.109Z,102056.22
2023-04-17T10:23:29.726Z,102060.44
2023-04-17T10:26:14.747Z,102048.94
2023-04-17T10:28:48.154Z,102050.47
2023-04-17T10:31:14.531Z,102054.69
2023-04-17T10:33:50.372Z,102053.34
2023-04-17T10:36:35.598Z,102055.47
2023-04-17T10:39:14.694Z,102045.31
2023-04-17T10:41:59.753Z,102048.94
2023-04-17T10:44:26.070Z,102051.81
2023-04-17T10:46:52.430Z,102047.59
2023-04-17T10:49:21.020Z,102044.72
2023-04-17T10:51:47.348Z,102034.72
2023-04-17T10:54:15.676Z,102037.44
2023-04-17T10:56:49.206Z,102035.31
2023-04-17T10:59:19.030Z,102041.84
2023-04-17T11:01:48.270Z,102034.56
2023-04-17T11:04:24.229Z,102044.72
2023-04-17T11:06:52.617Z,102039.72
2023-04-17T11:09:19.880Z,102029.72
2023-04-17T11:11:46.569Z,102038.94
2023-04-17T11:14:14.588Z,102038.94
2023-04-17T11:16:42.640Z,102041.97
2023-04-17T11:19:09.868Z,102041.84
2023-04-17T11:21:39.902Z,102043.34
2023-04-17T11:24:06.620Z,102043.34
2023-04-17T11:26:41.103Z,102035.47
2023-04-17T11:29:13.770Z,102037.59
2023-04-17T11:31:40.578Z,102034.72
2023-04-17T11:34:08.325Z,102037.72
2023-04-17T11:36:34.688Z,102043.47
2023-04-17T11:39:01.070Z,102048.50
2023-04-17T11:41:37.057Z,102038.94
2023-04-17T11:44:03.387Z,102040.47
2023-04-17T11:46:30.118Z,102046.84
2023-04-17T11:48:56.478Z,102044.84
2023-04-17T11:51:22.796Z,102047.72
2023-04-17T11:53:49.167Z,102053.47
2023-04-17T11:56:15.597Z,102051.97
2023-04-17T11:58:48.166Z,102060.75
2023-04-17T12:01:14.567Z,102048.59
2023-04-17T12:03:42.980Z,102061.63
2023-04-17T12:06:13.103Z,102056.63
2023-04-17T12:08:43.981Z,102061.75
2023-04-17T12:11:23.739Z,102057.00
2023-04-17T12:13:50.103Z,102065.13
2023-04-17T12:16:16.522Z,102058.25
2023-04-17T12:18:42.936Z,102064.91
2023-04-17T12:21:09.274Z,102066.25
2023-04-17T12:23:35.708Z,102064.13
2023-04-17T12:26:02.049Z,102062.78
2023-04-17T12:28:28.498Z,102055.63
2023-04-17T12:30:55.100Z,102064.41
2023-04-17T12:33:21.443Z,102069.53
2023-04-17T12:35:47.800Z,102067.41
2023-04-17T12:38:14.140Z,102067.28
2023-04-17T12:40:43.134Z,102073.03
2023-04-17T12:43:09.898Z,102067.28
2023-04-17T12:45:37.144Z,102071.53
2023-04-17T12:48:03.994Z,102071.53
2023-04-17T12:50:30.408Z,102066.53
2023-04-17T12:52:56.717Z,102070.16
2023-04-17T12:55:23.050Z,102075.78
2023-04-17T12:57:49.440Z,102074.28
2023-04-17T13:00:15.889Z,102085.06
2023-04-17T13:02:42.365Z,102078.53
2023-04-17T13:05:08.794Z,102084.28
2023-04-17T13:07:35.143Z,102085.06
2023-04-17T13:10:01.501Z,102090.03
2023-04-17T13:12:27.853Z,102097.31
2023-04-17T13:14:54.210Z,102094.31
2023-04-17T13:17:21.285Z,102101.56
2023-04-17T13:19:47.659Z,102097.06
2023-04-17T13:22:15.500Z,102108.56
2023-04-17T13:24:41.872Z,102110.81
2023-04-17T13:27:09.786Z,102125.34
2023-04-17T13:29:36.307Z,102115.81
2023-04-17T13:32:02.983Z,102121.56
2023-04-17T13:34:29.332Z,102121.56
2023-04-17T13:36:56.274Z,102120.22
2023-04-17T13:39:22.644Z,102113.56
2023-04-17T13:41:49.081Z,102116.44
2023-04-17T13:44:16.344Z,102117.34
2023-04-17T13:46:42.919Z,102131.72
2023-04-17T13:49:09.248Z,102118.69
2023-04-17T13:51:35.604Z,102118.81
2023-04-17T13:54:01.955Z,102119.59
2023-04-17T13:56:28.341Z,102117.34
2023-04-17T13:58:54.893Z,102113.84
2023-04-17T14:01:21.250Z,102119.84
2023-04-17T14:03:47.845Z,102121.84
2023-04-17T14:06:14.340Z,102113.06
2023-04-17T14:08:41.837Z,102116.97
2023-04-17T14:11:10.018Z,102111.13
2023-04-17T14:13:36.410Z,102113.00
2023-04-17T14:16:02.787Z,102112.25
2023-04-17T14:18:31.860Z,102119.69
2023-04-17T14:20:58.197Z,102118.44
2023-04-17T14:23:27.882Z,102111.44
2023-04-17T14:25:54.221Z,102118.97
2023-04-17T14:28:21.278Z,102117.22
2023-04-17T14:30:48.174Z,102116.53
2023-04-17T14:33:14.532Z,102117.94
2023-04-17T14:35:40.862Z,102114.19
2023-04-17T14:38:07.243Z,102113.59
2023-04-17T14:40:33.708Z,102110.22
2023-04-17T14:43:00.234Z,102119.75
2023-04-17T14:45:26.592Z,102117.22
2023-04-17T14:47:52.954Z,102103.94
2023-04-17T14:50:19.346Z,102113.97
2023-04-17T14:52:45.751Z,102123.63
2023-04-17T14:55:12.424Z,102121.47
2023-04-17T14:57:38.970Z,102121.97
2023-04-17T15:00:06.399Z,102128.50
2023-04-17T15:02:38.247Z,102122.09
2023-04-17T15:05:05.336Z,102120.31
2023-04-17T15:07:31.685Z,102129.72
2023-04-17T15:09:58.004Z,102123.75
2023-04-17T15:12:24.441Z,102122.22
2023-04-17T15:14:50.788Z,102131.97
2023-04-17T15:17:17.167Z,102128.72
2023-04-17T15:19:57.338Z,102126.31
2023-04-17T15:22:26.297Z,102123.81
2023-04-17T15:24:53.123Z,102121.69
2023-04-17T15:27:20.094Z,102125.91
2023-04-17T15:29:46.496Z,102127.91
2023-04-17T15:32:12.870Z,102129.91
2023-04-17T15:34:39.344Z,102127.03
2023-04-17T15:37:05.934Z,102124.16
2023-04-17T15:39:34.402Z,102131.91
2023-04-17T15:42:01.031Z,102129.44
2023-04-17T15:44:27.432Z,102120.94
2023-04-17T15:46:53.917Z,102137.34
2023-04-17T15:49:20.256Z,102132.34
2023-04-17T15:51:46.599Z,102126.72
2023-04-17T15:54:13.172Z,102131.97
2023-04-17T15:56:39.573Z,102130.22
2023-04-17T15:59:05.974Z,102139.00
2023-04-17T16:01:32.376Z,102128.47
2023-04-17T16:03:58.922Z,102134.97
2023-04-17T16:06:25.867Z,102144.16
2023-04-17T16:08:52.210Z,102134.28
2023-04-17T16:11:18.561Z,102143.91
2023-04-17T16:13:44.907Z,102133.25
2023-04-17T16:16:11.310Z,102152.41
2023-04-17T16:18:37.740Z,102142.31
2023-04-17T16:21:04.171Z,102149.81
2023-04-17T16:23:30.502Z,102144.19
2023-04-17T16:25:56.830Z,102141.28
2023-04-17T16:28:23.756Z,102144.31
2023-04-17T16:30:50.107Z,102145.56
2023-04-17T16:33:16.456Z,102133.78
2023-04-17T16:35:43.264Z,102140.91
2023-04-17T16:38:09.654Z,102142.03
2023-04-17T16:40:36.001Z,102142.03
2023-04-17T16:43:02.351Z,102135.66
2023-04-17T16:45:28.668Z,102146.56
2023-04-17T16:47:55.198Z,102148.06
2023-04-17T16:50:23.217Z,102150.47
2023-04-17T16:52:50.672Z,102140.56
2023-04-17T16:55:17.010Z,102157.84
2023-04-17T16:57:44.740Z,102156.34
2023-04-17T17:00:11.373Z,102153.34
2023-04-17T17:02:38.101Z,102157.72
2023-04-17T17:05:04.623Z,102156.09
2023-04-17T17:07:31.002Z,102157.94
2023-04-17T17:10:00.998Z,102158.72
2023-04-17T17:12:27.365Z,102163.88
2023-04-17T17:14:56.592Z,102160.25
2023-04-17T17:17:22.990Z,102158.09
2023-04-17T17:19:49.358Z,102168.13
2023-04-17T17:22:15.825Z,102165.00
2023-04-17T17:24:42.182Z,102159.59
2023-04-17T17:27:08.645Z,102161.47
2023-04-17T17:29:34.974Z,102171.63
2023-04-17T17:32:01.369Z,102168.59
2023-04-17T17:34:27.774Z,102169.88
2023-04-17T17:36:54.112Z,102167.59
2023-04-17T17:39:21.790Z,102172.13
2023-04-17T17:41:48.536Z,102169.84
2023-04-17T17:44:15.060Z,102173.84
2023-04-17T17:46:41.576Z,102176.63
2023-04-17T17:49:08.011Z,102168.81
2023-04-17T17:51:35.294Z,102170.06
2023-04-17T17:54:01.637Z,102186.16
2023-04-17T17:56:28.465Z,102182.38
2023-04-17T17:58:54.817Z,102181.38
2023-04-17T18:01:23.450Z,102182.66
2023-04-17T18:03:50.188Z,102184.66
2023-04-17T18:06:16.675Z,102185.66
2023-04-17T18:08:43.010Z,102181.78
2023-04-17T18:11:09.338Z,102187.94
2023-04-17T18:13:35.745Z,102189.41
2023-04-17T18:16:05.299Z,102189.94
2023-04-17T18:18:31.930Z,102183.91
2023-04-17T18:20:58.311Z,102183.66
2023-04-17T18:23:24.644Z,102194.44
2023-04-17T18:25:57.960Z,102183.66
2023-04-17T18:28:24.559Z,102192.91
2023-04-17T18:30:51.031Z,102198.06
2023-04-17T18:33:17.382Z,102200.19
2023-04-17T18:35:43.712Z,102197.81
2023-04-17T18:38:10.073Z,102201.44
2023-04-17T18:40:36.530Z,102205.09
2023-04-17T18:43:05.755Z,102204.31
2023-04-17T18:45:32.368Z,102203.78
2023-04-17T18:47:58.835Z,102212.31
2023-04-17T18:50:26.776Z,102216.34
2023-04-17T18:52:53.116Z,102216.19
2023-04-17T18:55:19.471Z,102210.84
2023-04-17T18:57:45.819Z,102209.97
2023-04-17T19:00:12.686Z,102206.94
2023-04-17T19:02:40.536Z,102216.81
2023-04-17T19:05:10.109Z,102208.66
2023-04-17T19:07:36.562Z,102207.16
2023-04-17T19:10:02.905Z,102201.91
2023-04-17T19:12:30.462Z,102211.28
2023-04-17T19:14:59.595Z,102209.03
2023-04-17T19:17:25.967Z,102204.66
2023-04-17T19:19:52.355Z,102204.66
2023-04-17T19:22:18.743Z,102204.66
2023-04-17T19:24:49.486Z,102208.28
2023-04-17T19:27:16.635Z,102204.66
2023-04-17T19:29:42.991Z,102201.63
2023-04-17T19:32:09.358Z,102206.66
2023-04-17T19:34:35.682Z,102215.91
2023-04-17T19:37:02.003Z,102202.88
2023-04-17T19:39:28.402Z,102214.66
2023-04-17T19:41:54.743Z,102207.41
2023-04-17T19:44:21.092Z,102211.63
2023-04-17T19:46:47.431Z,102204.38
2023-04-17T19:49:15.549Z,102200.00
2023-04-17T19:51:41.964Z,102209.41
2023-04-17T19:54:09.870Z,102208.66
2023-04-17T19:56:36.273Z,102207.13
2023-04-17T19:59:02.837Z,102200.63
2023-04-17T20:01:31.947Z,102195.59
2023-04-17T20:03:59.235Z,102201.38
2023-04-17T20:06:31.499Z,102208.50
2023-04-17T20:08:58.444Z,102209.88
2023-04-17T20:11:25.171Z,102202.75
2023-04-17T20:13:52.268Z,102212.63
2023-04-17T20:16:18.735Z,102203.97
2023-04-17T20:18:45.818Z,102208.25
2023-04-17T20:21:12.565Z,102205.09
2023-04-17T20:23:38.885Z,102193.56
2023-04-17T20:26:05.331Z,102203.59
2023-04-17T20:28:31.672Z,102199.94
2023-04-17T20:30:58.246Z,102192.69
2023-04-17T20:33:24.651Z,102194.84
2023-04-17T20:35:51.006Z,102194.09
2023-04-17T20:38:17.383Z,102187.53
2023-04-17T20:40:43.736Z,102190.44
2023-04-17T20:43:10.118Z,102186.81
2023-04-17T20:45:36.453Z,102185.31
2023-04-17T20:48:02.880Z,102185.91
2023-04-17T20:50:29.231Z,102185.78
2023-04-17T20:52:55.663Z,102194.44
2023-04-17T20:55:22.020Z,102187.31
2023-04-17T20:57:48.376Z,102184.28
2023-04-17T21:00:14.813Z,102190.06
2023-04-17T21:02:41.346Z,102187.78
2023-04-17T21:05:07.802Z,102186.28
2023-04-17T21:07:34.152Z,102187.50
2023-04-17T21:10:00.516Z,102194.94
2023-04-17T21:12:26.870Z,102192.66
2023-04-17T21:14:53.189Z,102200.56
2023-04-17T21:17:19.765Z,102195.41
2023-04-17T21:19:46.106Z,102196.03
2023-04-17T21:22:13.072Z,102206.78
2023-04-17T21:24:39.609Z,102205.28
2023-04-17T21:27:05.940Z,102205.91
2023-04-17T21:29:32.345Z,102206.66
2023-04-17T21:31:58.830Z,102202.28
2023-04-17T21:34:25.592Z,102203.63
2023-04-17T21:36:52.743Z,102199.25
2023-04-17T21:39:19.069Z,102207.91
2023-04-17T21:41:45.497Z,102202.75
2023-04-17T21:44:12.008Z,102203.38
2023-04-17T21:46:38.873Z,102209.13
2023-04-17T21:49:05.282Z,102210.50
2023-04-17T21:51:31.688Z,102210.50
2023-04-17T21:53:58.019Z,102209.75
2023-04-17T21:56:24.403Z,102208.25
2023-04-17T21:58:51.582Z,102212.50
2023-04-17T22:01:18.056Z,102210.25
2023-04-17T22:03:44.420Z,102216.00
2023-04-17T22:06:10.812Z,102211.63
2023-04-17T22:08:37.134Z,102214.50
2023-04-17T22:11:03.489Z,102212.97
2023-04-17T22:13:30.300Z,102217.25
2023-04-17T22:15:58.382Z,102217.25
2023-04-17T22:18:25.611Z,102217.25
2023-04-17T22:20:51.983Z,102214.22
2023-04-17T22:23:18.352Z,102225.75
2023-04-17T22:25:44.655Z,102219.25
2023-04-17T22:28:10.968Z,102223.47
2023-04-17T22:30:37.430Z,102228.47
2023-04-17T22:33:03.867Z,102221.97
2023-04-17T22:35:30.284Z,102221.97
2023-04-17T22:37:56.641Z,102219.72
2023-04-17T22:40:22.956Z,102221.22
2023-04-17T22:42:49.907Z,102225.47
2023-04-17T22:45:16.232Z,102218.22
2023-04-17T22:47:42.600Z,102221.69
2023-04-17T22:50:10.332Z,102221.69
2023-04-17T22:52:37.169Z,102218.69
2023-04-17T22:55:04.064Z,102213.69
2023-04-17T22:57:30.474Z,102225.19
2023-04-17T22:59:56.865Z,102229.44
2023-04-17T23:02:23.300Z,102229.44
2023-04-17T23:04:49.795Z,102236.59
2023-04-17T23:07:16.177Z,102227.19
2023-04-17T23:09:42.512Z,102235.06
2023-04-17T23:12:08.933Z,102239.19
2023-04-17T23:14:35.255Z,102239.47
2023-04-17T23:17:01.578Z,102239.47
2023-04-17T23:19:27.925Z,102236.44
2023-04-17T23:21:54.269Z,102245.69
2023-04-17T23:24:20.835Z,102237.66
2023-04-17T23:26:48.701Z,102247.69
2023-04-17T23:29:15.066Z,102247.69
2023-04-17T23:31:42.787Z,102241.19
2023-04-17T23:34:09.149Z,102243.28
2023-04-17T23:36:35.508Z,102233.13
2023-04-17T23:39:01.838Z,102247.50
2023-04-17T23:41:29.573Z,102247.38
2023-04-17T23:43:56.116Z,102242.38
2023-04-17T23:46:22.590Z,102240.13
2023-04-17T23:48:48.999Z,102238.59
2023-04-17T23:51:15.370Z,102245.09
2023-04-17T23:53:41.715Z,102237.09
2023-04-17T23:56:08.074Z,102242.09
2023-04-17T23:58:34.508Z,102241.34
